createdAt,value
2019-02-09T00:00:36.300Z,8.68
2019-02-09T00:01:36.323Z,8.77
2019-02-09T00:02:36.364Z,8.67
2019-02-09T00:03:36.407Z,8.69
2019-02-09T00:04:36.398Z,8.60
2019-02-09T00:05:36.417Z,8.69
2019-02-09T00:06:36.484Z,8.61
2019-02-09T00:07:36.467Z,8.64
2019-02-09T00:08:36.491Z,8.69
2019-02-09T00:09:36.522Z,8.68
2019-02-09T00:10:36.541Z,8.64
2019-02-09T00:11:36.561Z,8.60
2019-02-09T00:12:36.584Z,8.67
2019-02-09T00:13:36.610Z,8.65
2019-02-09T00:14:36.634Z,8.65
2019-02-09T00:15:36.659Z,8.57
2019-02-09T00:16:36.683Z,8.65
2019-02-09T00:17:36.704Z,8.71
2019-02-09T00:18:36.735Z,8.57
2019-02-09T00:19:36.752Z,8.69
2019-02-09T00:20:36.780Z,8.57
2019-02-09T00:21:36.802Z,8.72
2019-02-09T00:22:36.828Z,8.72
2019-02-09T00:23:36.851Z,8.65
2019-02-09T00:24:36.875Z,8.65
2019-02-09T00:25:36.904Z,8.62
2019-02-09T00:26:36.924Z,8.64
2019-02-09T00:27:36.949Z,8.58
2019-02-09T00:28:36.978Z,8.62
2019-02-09T00:29:36.996Z,8.67
2019-02-09T00:30:37.019Z,8.57
2019-02-09T00:31:37.042Z,8.58
2019-02-09T00:32:37.066Z,8.61
2019-02-09T00:33:37.092Z,8.58
2019-02-09T00:34:37.117Z,8.61
2019-02-09T00:35:37.138Z,8.47
2019-02-09T00:36:37.162Z,8.54
2019-02-09T00:37:37.187Z,8.49
2019-02-09T00:38:37.210Z,8.50
2019-02-09T00:39:37.932Z,8.53
2019-02-09T00:40:37.262Z,8.53
2019-02-09T00:41:37.282Z,8.43
2019-02-09T00:42:37.306Z,8.50
2019-02-09T00:43:37.329Z,8.44
2019-02-09T00:44:37.359Z,8.49
2019-02-09T00:45:37.380Z,8.52
2019-02-09T00:46:37.461Z,8.52
2019-02-09T00:47:38.502Z,8.49
2019-02-09T00:48:37.449Z,8.44
2019-02-09T00:49:37.476Z,8.47
2019-02-09T00:50:37.500Z,8.46
2019-02-09T00:51:37.527Z,8.49
2019-02-09T00:52:37.548Z,8.52
2019-02-09T00:53:37.570Z,8.49
2019-02-09T00:54:37.597Z,8.50
2019-02-09T00:55:37.627Z,8.49
2019-02-09T00:56:37.642Z,8.49
2019-02-09T00:57:37.665Z,8.47
2019-02-09T00:58:37.702Z,8.46
2019-02-09T00:59:37.715Z,8.50
2019-02-09T01:00:37.737Z,8.42
2019-02-09T01:01:37.765Z,8.50
2019-02-09T01:02:37.791Z,8.44
2019-02-09T01:03:37.811Z,8.50
2019-02-09T01:04:37.838Z,8.46
2019-02-09T01:05:37.859Z,8.46
2019-02-09T01:06:37.882Z,8.42
2019-02-09T01:07:37.907Z,8.49
2019-02-09T01:08:37.931Z,8.44
2019-02-09T01:09:37.953Z,8.49
2019-02-09T01:10:37.987Z,8.46
2019-02-09T01:11:38.004Z,8.49
2019-02-09T01:12:38.034Z,8.42
2019-02-09T01:13:38.051Z,8.47
2019-02-09T01:14:38.073Z,8.47
2019-02-09T01:15:38.096Z,8.49
2019-02-09T01:16:38.127Z,8.46
2019-02-09T01:17:38.148Z,8.43
2019-02-09T01:18:38.171Z,8.39
2019-02-09T01:19:38.192Z,8.47
2019-02-09T01:20:38.222Z,8.49
2019-02-09T01:21:38.247Z,8.35
2019-02-09T01:22:38.267Z,8.49
2019-02-09T01:23:38.288Z,8.46
2019-02-09T01:24:38.312Z,8.42
2019-02-09T01:25:38.336Z,8.43
2019-02-09T01:26:38.363Z,8.42
2019-02-09T01:27:38.385Z,8.42
2019-02-09T01:28:38.410Z,8.39
2019-02-09T01:29:38.432Z,8.36
2019-02-09T01:30:38.457Z,8.39
2019-02-09T01:31:38.479Z,8.34
2019-02-09T01:32:38.506Z,8.39
2019-02-09T01:33:38.526Z,8.34
2019-02-09T01:34:38.557Z,8.35
2019-02-09T01:35:38.575Z,8.31
2019-02-09T01:36:38.601Z,8.35
2019-02-09T01:37:38.626Z,8.39
2019-02-09T01:38:38.648Z,8.34
2019-02-09T01:39:38.673Z,8.35
2019-02-09T01:40:38.697Z,8.34
2019-02-09T01:41:38.721Z,8.35
2019-02-09T01:42:38.743Z,8.36
2019-02-09T01:43:38.768Z,8.35
2019-02-09T01:44:38.795Z,8.34
2019-02-09T01:45:38.818Z,8.40
2019-02-09T01:46:38.838Z,8.43
2019-02-09T01:47:38.862Z,8.43
2019-02-09T01:48:38.892Z,8.42
2019-02-09T01:49:38.912Z,8.36
2019-02-09T01:50:38.934Z,8.43
2019-02-09T01:51:38.957Z,8.40
2019-02-09T01:52:38.980Z,8.40
2019-02-09T01:53:39.005Z,8.40
2019-02-09T01:54:39.029Z,8.43
2019-02-09T01:55:39.054Z,8.40
2019-02-09T01:56:39.082Z,8.39
2019-02-09T01:57:39.103Z,8.36
2019-02-09T01:58:39.138Z,8.43
2019-02-09T01:59:39.150Z,8.42
2019-02-09T02:00:39.172Z,8.44
2019-02-09T02:01:39.197Z,8.49
2019-02-09T02:02:39.223Z,8.43
2019-02-09T02:03:39.246Z,8.49
2019-02-09T02:04:39.269Z,8.50
2019-02-09T02:05:39.294Z,8.44
2019-02-09T02:06:39.316Z,8.52
2019-02-09T02:07:39.339Z,8.50
2019-02-09T02:08:39.362Z,8.44
2019-02-09T02:09:39.389Z,8.52
2019-02-09T02:10:39.413Z,8.50
2019-02-09T02:11:39.435Z,8.49
2019-02-09T02:12:39.464Z,8.53
2019-02-09T02:13:39.487Z,8.47
2019-02-09T02:14:39.509Z,8.52
2019-02-09T02:15:39.530Z,8.52
2019-02-09T02:16:39.553Z,8.60
2019-02-09T02:17:39.577Z,8.52
2019-02-09T02:18:39.602Z,8.50
2019-02-09T02:19:39.637Z,8.53
2019-02-09T02:20:39.650Z,8.47
2019-02-09T02:21:39.674Z,8.46
2019-02-09T02:22:39.701Z,8.49
2019-02-09T02:23:39.720Z,8.53
2019-02-09T02:24:39.748Z,8.43
2019-02-09T02:25:39.772Z,8.43
2019-02-09T02:26:39.796Z,8.40
2019-02-09T02:27:39.816Z,8.34
2019-02-09T02:28:39.843Z,8.32
2019-02-09T02:29:39.867Z,8.39
2019-02-09T02:30:39.890Z,8.26
2019-02-09T02:31:39.911Z,8.28
2019-02-09T02:32:39.939Z,8.31
2019-02-09T02:33:39.961Z,8.35
2019-02-09T02:34:39.990Z,8.25
2019-02-09T02:35:40.008Z,8.26
2019-02-09T02:36:40.037Z,8.26
2019-02-09T02:37:40.056Z,8.14
2019-02-09T02:38:40.084Z,8.26
2019-02-09T02:39:40.106Z,8.24
2019-02-09T02:40:40.127Z,8.25
2019-02-09T02:41:40.161Z,8.26
2019-02-09T02:42:40.175Z,8.24
2019-02-09T02:43:40.202Z,8.14
2019-02-09T02:44:40.226Z,8.21
2019-02-09T02:45:40.251Z,8.16
2019-02-09T02:46:40.274Z,8.13
2019-02-09T02:47:40.296Z,8.21
2019-02-09T02:48:40.322Z,8.22
2019-02-09T02:49:40.348Z,8.19
2019-02-09T02:50:40.368Z,8.28
2019-02-09T02:51:40.401Z,8.09
2019-02-09T02:52:40.416Z,8.16
2019-02-09T02:53:40.437Z,8.21
2019-02-09T02:54:40.461Z,8.28
2019-02-09T02:55:40.488Z,8.21
2019-02-09T02:56:40.512Z,8.22
2019-02-09T02:57:40.534Z,8.26
2019-02-09T02:58:40.562Z,8.29
2019-02-09T02:59:40.582Z,8.24
2019-02-09T03:00:40.605Z,8.25
2019-02-09T03:01:40.780Z,8.28
2019-02-09T03:02:40.660Z,8.28
2019-02-09T03:03:40.677Z,8.35
2019-02-09T03:04:40.704Z,8.31
2019-02-09T03:05:40.723Z,8.35
2019-02-09T03:06:40.749Z,8.34
2019-02-09T03:07:40.772Z,8.35
2019-02-09T03:08:40.800Z,8.44
2019-02-09T03:09:40.820Z,8.44
2019-02-09T03:10:40.842Z,8.49
2019-02-09T03:11:40.868Z,8.52
2019-02-09T03:12:40.889Z,8.50
2019-02-09T03:13:40.914Z,8.57
2019-02-09T03:14:40.939Z,8.53
2019-02-09T03:15:40.968Z,8.47
2019-02-09T03:16:40.984Z,8.54
2019-02-09T03:17:41.024Z,8.50
2019-02-09T03:18:41.038Z,8.53
2019-02-09T03:19:41.059Z,8.57
2019-02-09T03:20:41.081Z,8.47
2019-02-09T03:21:41.107Z,8.47
2019-02-09T03:22:41.128Z,8.47
2019-02-09T03:23:41.154Z,8.50
2019-02-09T03:24:41.184Z,8.52
2019-02-09T03:25:41.200Z,8.62
2019-02-09T03:26:41.227Z,8.62
2019-02-09T03:27:41.245Z,8.49
2019-02-09T03:28:41.272Z,8.50
2019-02-09T03:29:41.308Z,8.58
2019-02-09T03:30:47.891Z,8.61
2019-02-09T03:31:41.343Z,8.58
2019-02-09T03:32:41.369Z,8.62
2019-02-09T03:33:41.400Z,8.60
2019-02-09T03:34:41.419Z,8.62
2019-02-09T03:35:41.441Z,8.65
2019-02-09T03:36:41.464Z,8.61
2019-02-09T03:37:41.488Z,8.64
2019-02-09T03:38:41.521Z,8.68
2019-02-09T03:39:41.532Z,8.64
2019-02-09T03:40:41.559Z,8.62
2019-02-09T03:41:41.581Z,8.65
2019-02-09T03:42:41.607Z,8.67
2019-02-09T03:43:41.630Z,8.72
2019-02-09T03:44:41.652Z,8.69
2019-02-09T03:45:41.685Z,8.69
2019-02-09T03:46:41.710Z,8.67
2019-02-09T03:47:41.760Z,8.61
2019-02-09T03:48:41.748Z,8.62
2019-02-09T03:49:41.772Z,8.67
2019-02-09T03:50:41.797Z,8.68
2019-02-09T03:51:41.821Z,8.64
2019-02-09T03:52:41.846Z,8.64
2019-02-09T03:53:41.884Z,8.77
2019-02-09T03:54:41.897Z,8.60
2019-02-09T03:55:41.918Z,8.80
2019-02-09T03:56:41.942Z,8.65
2019-02-09T03:57:41.969Z,8.62
2019-02-09T03:58:41.993Z,8.65
2019-02-09T03:59:42.012Z,8.65
2019-02-09T04:01:42.060Z,8.69
2019-02-09T04:02:42.094Z,8.64
2019-02-09T04:03:42.105Z,8.64
2019-02-09T04:04:42.137Z,8.67
2019-02-09T04:05:42.167Z,8.62
2019-02-09T04:06:42.179Z,8.68
2019-02-09T04:07:42.201Z,8.76
2019-02-09T04:08:42.224Z,8.83
2019-02-09T04:09:42.249Z,8.65
2019-02-09T04:10:42.273Z,8.61
2019-02-09T04:11:42.301Z,8.69
2019-02-09T04:12:42.323Z,8.69
2019-02-09T04:13:42.348Z,8.68
2019-02-09T04:14:42.369Z,8.69
2019-02-09T04:15:42.399Z,8.62
2019-02-09T04:16:42.419Z,8.65
2019-02-09T04:17:42.441Z,8.69
2019-02-09T04:18:42.468Z,8.71
2019-02-09T04:19:42.490Z,8.68
2019-02-09T04:20:42.513Z,8.65
2019-02-09T04:21:42.537Z,8.68
2019-02-09T04:22:42.561Z,8.67
2019-02-09T04:23:42.587Z,8.68
2019-02-09T04:24:42.612Z,8.62
2019-02-09T04:25:42.641Z,8.67
2019-02-09T04:26:42.674Z,8.68
2019-02-09T04:27:42.683Z,8.71
2019-02-09T04:28:42.714Z,8.74
2019-02-09T04:29:42.735Z,8.74
2019-02-09T04:30:42.762Z,8.76
2019-02-09T04:31:42.781Z,8.77
2019-02-09T04:32:42.800Z,8.80
2019-02-09T04:33:42.827Z,8.85
2019-02-09T04:34:42.854Z,8.83
2019-02-09T04:35:42.883Z,8.83
2019-02-09T04:36:42.903Z,8.83
2019-02-09T04:37:42.927Z,8.76
2019-02-09T04:38:42.948Z,8.82
2019-02-09T04:39:42.981Z,8.90
2019-02-09T04:40:42.993Z,8.85
2019-02-09T04:41:43.018Z,8.86
2019-02-09T04:42:43.052Z,8.92
2019-02-09T04:43:43.065Z,8.87
2019-02-09T04:44:43.092Z,8.92
2019-02-09T04:45:43.114Z,8.95
2019-02-09T04:46:43.140Z,8.94
2019-02-09T04:47:43.163Z,8.92
2019-02-09T04:48:43.189Z,8.97
2019-02-09T04:49:43.211Z,9.00
2019-02-09T04:50:43.236Z,9.03
2019-02-09T04:51:43.260Z,8.98
2019-02-09T04:52:43.282Z,8.98
2019-02-09T04:53:43.314Z,9.03
2019-02-09T04:54:43.333Z,8.97
2019-02-09T04:55:43.357Z,8.97
2019-02-09T04:56:43.382Z,9.05
2019-02-09T04:57:43.405Z,9.04
2019-02-09T04:58:43.430Z,9.05
2019-02-09T04:59:43.451Z,9.04
2019-02-09T05:00:43.479Z,9.09
2019-02-09T05:01:43.501Z,8.98
2019-02-09T05:02:43.526Z,9.09
2019-02-09T05:03:43.549Z,9.08
2019-02-09T05:04:43.580Z,9.03
2019-02-09T05:05:43.594Z,9.05
2019-02-09T05:06:43.623Z,9.11
2019-02-09T05:07:43.646Z,9.05
2019-02-09T05:08:43.667Z,9.05
2019-02-09T05:09:43.695Z,9.04
2019-02-09T05:10:43.718Z,9.04
2019-02-09T05:11:43.739Z,9.01
2019-02-09T05:12:43.768Z,9.04
2019-02-09T05:13:43.791Z,9.04
2019-02-09T05:14:43.822Z,9.00
2019-02-09T05:15:43.844Z,9.09
2019-02-09T05:16:43.863Z,9.09
2019-02-09T05:17:43.885Z,9.20
2019-02-09T05:18:43.909Z,9.20
2019-02-09T05:19:44.010Z,9.16
2019-02-09T05:20:43.969Z,9.14
2019-02-09T05:21:43.984Z,9.17
2019-02-09T05:22:44.007Z,9.26
2019-02-09T05:23:44.029Z,9.14
2019-02-09T05:24:44.056Z,9.24
2019-02-09T05:25:44.078Z,9.23
2019-02-09T05:26:44.103Z,9.23
2019-02-09T05:27:44.126Z,9.27
2019-02-09T05:28:44.151Z,9.23
2019-02-09T05:29:44.175Z,9.19
2019-02-09T05:30:44.205Z,9.29
2019-02-09T05:31:44.226Z,9.26
2019-02-09T05:32:44.251Z,9.21
2019-02-09T05:33:44.272Z,9.35
2019-02-09T05:34:44.300Z,9.34
2019-02-09T05:35:44.321Z,9.29
2019-02-09T05:36:44.361Z,9.35
2019-02-09T05:37:44.378Z,9.29
2019-02-09T05:38:44.393Z,9.24
2019-02-09T05:39:44.419Z,9.35
2019-02-09T05:40:44.444Z,9.24
2019-02-09T05:41:44.468Z,9.32
2019-02-09T05:42:44.489Z,9.14
2019-02-09T05:43:44.513Z,9.16
2019-02-09T05:44:44.539Z,9.23
2019-02-09T05:45:44.564Z,9.24
2019-02-09T05:46:44.593Z,9.19
2019-02-09T05:47:44.616Z,9.14
2019-02-09T05:48:44.634Z,9.14
2019-02-09T05:49:44.662Z,9.19
2019-02-09T05:50:44.684Z,9.20
2019-02-09T05:51:44.706Z,9.12
2019-02-09T05:52:44.732Z,9.12
2019-02-09T05:53:44.756Z,9.12
2019-02-09T05:54:44.779Z,9.11
2019-02-09T05:55:44.811Z,9.17
2019-02-09T05:56:44.827Z,9.17
2019-02-09T05:57:44.852Z,9.20
2019-02-09T05:58:44.875Z,9.03
2019-02-09T05:59:44.900Z,9.09
2019-02-09T06:00:44.922Z,9.16
2019-02-09T06:01:44.951Z,9.12
2019-02-09T06:02:44.971Z,9.03
2019-02-09T06:03:45.349Z,8.98
2019-02-09T06:04:45.024Z,9.04
2019-02-09T06:05:45.071Z,9.05
2019-02-09T06:06:45.068Z,9.05
2019-02-09T06:07:45.092Z,9.04
2019-02-09T06:08:45.117Z,9.05
2019-02-09T06:09:45.141Z,9.03
2019-02-09T06:10:45.170Z,9.05
2019-02-09T06:11:45.195Z,9.05
2019-02-09T06:12:45.218Z,9.09
2019-02-09T06:13:45.238Z,9.20
2019-02-09T06:14:45.260Z,9.19
2019-02-09T06:15:45.288Z,9.08
2019-02-09T06:16:45.314Z,9.16
2019-02-09T06:17:45.339Z,9.14
2019-02-09T06:18:45.360Z,9.17
2019-02-09T06:19:45.383Z,9.20
2019-02-09T06:20:45.406Z,9.29
2019-02-09T06:21:45.431Z,9.24
2019-02-09T06:22:45.459Z,9.20
2019-02-09T06:23:45.487Z,9.23
2019-02-09T06:24:45.501Z,9.27
2019-02-09T06:25:45.529Z,9.29
2019-02-09T06:26:45.559Z,9.29
2019-02-09T06:27:45.576Z,9.27
2019-02-09T06:28:45.599Z,9.38
2019-02-09T06:29:45.629Z,9.34
2019-02-09T06:30:45.649Z,9.37
2019-02-09T06:31:45.673Z,9.29
2019-02-09T06:32:45.698Z,9.27
2019-02-09T06:33:45.720Z,9.27
2019-02-09T06:34:45.745Z,9.29
2019-02-09T06:35:45.768Z,9.26
2019-02-09T06:36:45.800Z,9.24
2019-02-09T06:37:45.821Z,9.24
2019-02-09T06:38:45.841Z,9.29
2019-02-09T06:39:45.864Z,9.24
2019-02-09T06:40:45.892Z,9.23
2019-02-09T06:41:45.915Z,9.23
2019-02-09T06:42:45.944Z,9.24
2019-02-09T06:43:45.963Z,9.23
2019-02-09T06:44:45.989Z,9.23
2019-02-09T06:45:46.010Z,9.27
2019-02-09T06:46:46.035Z,9.26
2019-02-09T06:47:46.066Z,9.19
2019-02-09T06:48:46.085Z,9.26
2019-02-09T06:49:46.664Z,9.30
2019-02-09T06:50:46.131Z,9.23
2019-02-09T06:51:46.160Z,9.24
2019-02-09T06:52:46.181Z,9.30
2019-02-09T06:53:46.663Z,9.23
2019-02-09T06:54:46.678Z,9.30
2019-02-09T06:55:46.652Z,9.32
2019-02-09T06:56:46.730Z,9.41
2019-02-09T06:57:46.651Z,9.35
2019-02-09T06:58:46.363Z,9.39
2019-02-09T06:59:46.701Z,9.39
2019-02-09T07:00:46.680Z,9.45
2019-02-09T07:01:48.773Z,9.38
2019-02-09T07:02:46.725Z,9.34
2019-02-09T07:03:46.648Z,9.27
2019-02-09T07:04:46.471Z,9.27
2019-02-09T07:05:46.699Z,9.35
2019-02-09T07:06:46.627Z,9.30
2019-02-09T07:07:46.550Z,9.29
2019-02-09T07:08:46.566Z,9.30
2019-02-09T07:09:46.593Z,9.27
2019-02-09T07:10:46.618Z,9.23
2019-02-09T07:11:46.645Z,9.34
2019-02-09T07:12:46.662Z,9.27
2019-02-09T07:13:46.690Z,9.24
2019-02-09T07:14:46.721Z,9.24
2019-02-09T07:15:46.735Z,9.21
2019-02-09T07:16:46.771Z,9.23
2019-02-09T07:17:46.791Z,9.23
2019-02-09T07:18:46.810Z,9.20
2019-02-09T07:19:46.834Z,9.27
2019-02-09T07:20:46.858Z,9.26
2019-02-09T07:21:46.884Z,9.29
2019-02-09T07:22:46.908Z,9.30
2019-02-09T07:23:46.931Z,9.23
2019-02-09T07:24:46.953Z,9.23
2019-02-09T07:25:46.978Z,9.35
2019-02-09T07:26:47.004Z,9.30
2019-02-09T07:27:47.029Z,9.29
2019-02-09T07:28:47.052Z,9.32
2019-02-09T07:29:47.076Z,9.23
2019-02-09T07:30:47.099Z,9.27
2019-02-09T07:31:47.124Z,9.24
2019-02-09T07:32:47.147Z,9.34
2019-02-09T07:33:47.171Z,9.29
2019-02-09T07:34:47.195Z,9.30
2019-02-09T07:35:47.221Z,9.37
2019-02-09T07:36:47.244Z,9.30
2019-02-09T07:37:47.269Z,9.32
2019-02-09T07:38:47.292Z,9.35
2019-02-09T07:39:47.316Z,9.37
2019-02-09T07:40:47.342Z,9.29
2019-02-09T07:41:47.365Z,9.32
2019-02-09T07:42:47.389Z,9.38
2019-02-09T07:43:47.415Z,9.34
2019-02-09T07:44:47.439Z,9.42
2019-02-09T07:45:47.465Z,9.45
2019-02-09T07:46:47.486Z,9.53
2019-02-09T07:47:47.520Z,9.50
2019-02-09T07:48:47.536Z,9.53
2019-02-09T07:49:47.561Z,9.50
2019-02-09T07:50:47.585Z,9.52
2019-02-09T07:51:47.609Z,9.53
2019-02-09T07:52:47.631Z,9.55
2019-02-09T07:53:47.655Z,9.55
2019-02-09T07:54:47.691Z,9.64
2019-02-09T07:55:47.703Z,9.59
2019-02-09T07:56:47.730Z,9.80
2019-02-09T07:57:47.760Z,9.72
2019-02-09T07:58:47.782Z,9.66
2019-02-09T07:59:47.803Z,9.71
2019-02-09T08:00:47.826Z,9.60
2019-02-09T08:01:47.853Z,9.67
2019-02-09T08:02:47.876Z,9.64
2019-02-09T08:03:47.901Z,9.60
2019-02-09T08:04:47.922Z,9.60
2019-02-09T08:05:47.948Z,9.60
2019-02-09T08:06:47.978Z,9.63
2019-02-09T08:07:47.995Z,9.55
2019-02-09T08:08:48.022Z,9.63
2019-02-09T08:09:48.046Z,9.59
2019-02-09T08:10:48.068Z,9.60
2019-02-09T08:11:48.092Z,9.62
2019-02-09T08:12:48.127Z,9.67
2019-02-09T08:13:48.143Z,9.63
2019-02-09T08:14:48.171Z,9.64
2019-02-09T08:15:48.189Z,9.64
2019-02-09T08:16:48.222Z,9.63
2019-02-09T08:17:48.239Z,9.63
2019-02-09T08:18:48.277Z,9.70
2019-02-09T08:19:48.289Z,9.63
2019-02-09T08:20:48.311Z,9.62
2019-02-09T08:21:48.337Z,9.75
2019-02-09T08:22:48.366Z,9.63
2019-02-09T08:23:48.389Z,9.62
2019-02-09T08:24:48.416Z,9.62
2019-02-09T08:25:48.443Z,9.64
2019-02-09T08:26:48.467Z,9.63
2019-02-09T08:27:48.486Z,9.63
2019-02-09T08:28:48.515Z,9.66
2019-02-09T08:29:48.532Z,9.70
2019-02-09T08:30:48.563Z,9.62
2019-02-09T08:31:48.581Z,9.67
2019-02-09T08:32:48.616Z,9.62
2019-02-09T08:33:48.632Z,9.74
2019-02-09T08:34:48.657Z,9.64
2019-02-09T08:35:48.681Z,9.63
2019-02-09T08:36:48.709Z,9.66
2019-02-09T08:37:48.728Z,9.63
2019-02-09T08:38:48.756Z,9.70
2019-02-09T08:39:48.777Z,9.60
2019-02-09T08:40:48.806Z,9.62
2019-02-09T08:41:48.829Z,9.56
2019-02-09T08:42:48.853Z,9.63
2019-02-09T08:43:48.878Z,9.63
2019-02-09T08:44:48.902Z,9.74
2019-02-09T08:45:48.930Z,9.66
2019-02-09T08:46:48.958Z,9.74
2019-02-09T08:47:48.979Z,9.74
2019-02-09T08:48:48.999Z,9.72
2019-02-09T08:49:49.023Z,9.75
2019-02-09T08:50:49.051Z,9.85
2019-02-09T08:51:49.074Z,9.90
2019-02-09T08:52:49.098Z,9.88
2019-02-09T08:53:49.129Z,9.82
2019-02-09T08:54:49.146Z,9.88
2019-02-09T08:55:49.171Z,9.85
2019-02-09T08:56:49.198Z,9.80
2019-02-09T08:57:49.224Z,9.84
2019-02-09T08:58:49.248Z,9.93
2019-02-09T08:59:49.270Z,10.02
2019-02-09T09:00:49.294Z,10.02
2019-02-09T09:01:49.328Z,9.92
2019-02-09T09:02:49.345Z,9.82
2019-02-09T09:03:49.370Z,9.84
2019-02-09T09:04:49.401Z,9.81
2019-02-09T09:05:49.421Z,9.84
2019-02-09T09:06:49.451Z,9.88
2019-02-09T09:07:49.474Z,9.89
2019-02-09T09:08:49.502Z,10.10
2019-02-09T09:09:49.521Z,10.08
2019-02-09T09:10:49.547Z,10.08
2019-02-09T09:11:49.568Z,9.98
2019-02-09T09:12:49.594Z,10.17
2019-02-09T09:13:49.621Z,11.38
2019-02-09T09:14:49.646Z,12.07
2019-02-09T09:15:49.671Z,11.75
2019-02-09T09:16:49.695Z,11.81
2019-02-09T09:17:49.720Z,10.76
2019-02-09T09:18:49.753Z,10.41
2019-02-09T09:19:49.771Z,10.38
2019-02-09T09:20:49.797Z,10.57
2019-02-09T09:21:49.824Z,10.49
2019-02-09T09:22:49.853Z,10.38
2019-02-09T09:23:49.876Z,10.90
2019-02-09T09:24:49.900Z,11.18
2019-02-09T09:25:49.928Z,10.87
2019-02-09T09:26:49.956Z,11.26
2019-02-09T09:27:49.979Z,10.83
2019-02-09T09:28:50.015Z,10.51
2019-02-09T09:29:50.035Z,10.35
2019-02-09T09:30:50.064Z,11.35
2019-02-09T09:31:50.094Z,11.46
2019-02-09T09:32:50.114Z,10.90
2019-02-09T09:33:50.144Z,10.67
2019-02-09T09:34:50.167Z,10.85
2019-02-09T09:35:50.193Z,10.59
2019-02-09T09:36:50.219Z,10.52
2019-02-09T09:37:50.251Z,10.55
2019-02-09T09:38:50.273Z,10.65
2019-02-09T09:39:50.306Z,10.52
2019-02-09T09:40:50.329Z,10.59
2019-02-09T09:41:50.351Z,11.10
2019-02-09T09:42:50.378Z,10.92
2019-02-09T09:43:50.403Z,10.84
2019-02-09T09:44:50.432Z,11.23
2019-02-09T09:45:50.467Z,10.79
2019-02-09T09:46:50.491Z,10.57
2019-02-09T09:47:50.509Z,10.38
2019-02-09T09:48:50.537Z,10.46
2019-02-09T09:49:50.562Z,10.39
2019-02-09T09:50:50.593Z,10.36
2019-02-09T09:51:50.622Z,10.36
2019-02-09T09:52:50.646Z,10.32
2019-02-09T09:53:50.675Z,10.38
2019-02-09T09:54:50.695Z,10.87
2019-02-09T09:55:50.721Z,10.41
2019-02-09T09:56:50.752Z,10.35
2019-02-09T09:57:50.774Z,10.28
2019-02-09T09:58:50.803Z,10.17
2019-02-09T09:59:50.821Z,10.10
2019-02-09T10:00:50.856Z,10.13
2019-02-09T10:01:50.877Z,10.17
2019-02-09T10:02:50.905Z,10.23
2019-02-09T10:03:52.058Z,10.10
2019-02-09T10:04:50.954Z,9.99
2019-02-09T10:05:50.975Z,10.02
2019-02-09T10:06:51.002Z,11.45
2019-02-09T10:07:51.035Z,12.29
2019-02-09T10:08:51.061Z,12.89
2019-02-09T10:09:51.081Z,12.03
2019-02-09T10:10:51.107Z,11.57
2019-02-09T10:11:51.131Z,11.23
2019-02-09T10:12:51.164Z,10.94
2019-02-09T10:13:51.184Z,10.88
2019-02-09T10:14:51.213Z,10.98
2019-02-09T10:15:51.236Z,11.21
2019-02-09T10:16:51.269Z,11.42
2019-02-09T10:17:51.298Z,11.60
2019-02-09T10:18:51.320Z,12.26
2019-02-09T10:19:51.345Z,12.84
2019-02-09T10:20:51.373Z,13.11
2019-02-09T10:21:51.398Z,13.25
2019-02-09T10:22:51.425Z,12.98
2019-02-09T10:23:51.461Z,13.13
2019-02-09T10:24:51.486Z,13.99
2019-02-09T10:25:51.511Z,14.24
2019-02-09T10:26:54.159Z,13.58
2019-02-09T10:27:54.188Z,13.63
2019-02-09T10:28:51.594Z,13.28
2019-02-09T10:29:51.624Z,12.59
2019-02-09T10:30:51.651Z,12.37
2019-02-09T10:31:51.679Z,11.78
2019-02-09T10:32:51.710Z,11.53
2019-02-09T10:33:51.739Z,11.81
2019-02-09T10:34:51.765Z,12.47
2019-02-09T10:35:51.796Z,12.18
2019-02-09T10:36:51.825Z,12.05
2019-02-09T10:37:51.855Z,11.86
2019-02-09T10:38:51.881Z,11.71
2019-02-09T10:39:51.911Z,11.67
2019-02-09T10:40:51.941Z,11.41
2019-02-09T10:41:51.967Z,11.24
2019-02-09T10:42:51.998Z,11.34
2019-02-09T10:43:52.024Z,11.41
2019-02-09T10:44:52.054Z,11.43
2019-02-09T10:45:52.083Z,11.52
2019-02-09T10:46:52.115Z,11.24
2019-02-09T10:47:52.138Z,11.31
2019-02-09T10:48:52.166Z,11.26
2019-02-09T10:49:52.191Z,11.21
2019-02-09T10:50:52.221Z,11.09
2019-02-09T10:51:52.246Z,11.03
2019-02-09T10:52:52.274Z,11.05
2019-02-09T10:53:52.302Z,10.88
2019-02-09T10:54:52.332Z,10.97
2019-02-09T10:55:52.362Z,11.00
2019-02-09T10:56:52.383Z,11.09
2019-02-09T10:57:52.412Z,11.03
2019-02-09T10:58:52.438Z,11.05
2019-02-09T10:59:52.474Z,11.28
2019-02-09T11:00:52.497Z,11.38
2019-02-09T11:01:52.517Z,11.81
2019-02-09T11:02:52.548Z,11.84
2019-02-09T11:03:52.569Z,12.13
2019-02-09T11:04:52.599Z,13.57
2019-02-09T11:05:52.626Z,14.11
2019-02-09T11:06:52.651Z,12.96
2019-02-09T11:07:52.679Z,12.28
2019-02-09T11:08:52.708Z,11.89
2019-02-09T11:09:52.733Z,11.53
2019-02-09T11:10:52.760Z,11.43
2019-02-09T11:11:52.785Z,11.38
2019-02-09T11:12:52.814Z,11.24
2019-02-09T11:13:52.839Z,11.13
2019-02-09T11:14:52.875Z,11.10
2019-02-09T11:15:52.895Z,11.13
2019-02-09T11:16:52.919Z,11.12
2019-02-09T11:17:52.947Z,11.16
2019-02-09T11:18:52.973Z,11.15
2019-02-09T11:19:52.999Z,11.24
2019-02-09T11:20:53.027Z,11.38
2019-02-09T11:21:53.055Z,11.33
2019-02-09T11:22:53.090Z,11.15
2019-02-09T11:23:53.107Z,11.13
2019-02-09T11:24:53.439Z,11.20
2019-02-09T11:25:53.158Z,11.06
2019-02-09T11:26:53.185Z,11.09
2019-02-09T11:27:53.212Z,11.39
2019-02-09T11:28:53.246Z,11.81
2019-02-09T11:29:53.269Z,11.57
2019-02-09T11:30:53.291Z,11.39
2019-02-09T11:31:53.316Z,11.39
2019-02-09T11:33:01.676Z,11.43
2019-02-09T11:33:53.374Z,11.41
2019-02-09T11:34:53.397Z,11.26
2019-02-09T11:35:53.428Z,11.33
2019-02-09T11:36:53.449Z,11.26
2019-02-09T11:37:53.475Z,11.21
2019-02-09T11:38:53.498Z,11.35
2019-02-09T11:39:53.524Z,11.79
2019-02-09T11:40:53.550Z,11.76
2019-02-09T11:41:53.576Z,11.75
2019-02-09T11:42:53.602Z,11.42
2019-02-09T11:43:53.630Z,11.27
2019-02-09T11:44:53.660Z,11.21
2019-02-09T11:45:53.682Z,11.12
2019-02-09T11:46:53.712Z,11.12
2019-02-09T11:47:53.734Z,11.16
2019-02-09T11:48:53.760Z,11.15
2019-02-09T11:49:53.787Z,11.24
2019-02-09T11:50:53.819Z,11.21
2019-02-09T11:51:53.838Z,11.18
2019-02-09T11:52:53.874Z,11.13
2019-02-09T11:53:53.889Z,11.05
2019-02-09T11:54:53.921Z,11.08
2019-02-09T11:55:53.939Z,11.03
2019-02-09T11:56:53.966Z,11.02
2019-02-09T11:57:53.999Z,10.95
2019-02-09T11:58:54.023Z,10.92
2019-02-09T11:59:54.052Z,10.90
2019-02-09T12:00:54.069Z,11.00
2019-02-09T12:01:54.095Z,10.94
2019-02-09T12:03:02.164Z,11.03
2019-02-09T12:03:54.147Z,11.00
2019-02-09T12:04:54.173Z,11.41
2019-02-09T12:05:54.198Z,11.28
2019-02-09T12:06:54.225Z,11.12
2019-02-09T12:07:54.247Z,11.08
2019-02-09T12:08:54.282Z,11.00
2019-02-09T12:09:54.301Z,10.92
2019-02-09T12:10:54.327Z,11.05
2019-02-09T12:11:54.351Z,10.95
2019-02-09T12:12:54.378Z,11.08
2019-02-09T12:13:55.604Z,11.15
2019-02-09T12:14:54.428Z,11.45
2019-02-09T12:15:54.478Z,11.46
2019-02-09T12:16:54.479Z,11.27
2019-02-09T12:17:54.505Z,11.24
2019-02-09T12:18:54.528Z,11.20
2019-02-09T12:19:54.555Z,11.20
2019-02-09T12:20:54.582Z,11.16
2019-02-09T12:21:54.606Z,11.23
2019-02-09T12:22:54.680Z,11.21
2019-02-09T12:23:54.655Z,11.30
2019-02-09T12:24:54.685Z,11.41
2019-02-09T12:25:54.708Z,11.42
2019-02-09T12:26:54.731Z,11.52
2019-02-09T12:27:54.758Z,12.48
2019-02-09T12:28:54.792Z,12.48
2019-02-09T12:29:56.558Z,12.04
2019-02-09T12:30:54.834Z,12.41
2019-02-09T12:31:54.862Z,12.56
2019-02-09T12:32:54.894Z,12.28
2019-02-09T12:33:54.916Z,11.76
2019-02-09T12:34:54.937Z,11.64
2019-02-09T12:35:54.965Z,11.75
2019-02-09T12:36:54.992Z,11.82
2019-02-09T12:37:55.018Z,11.86
2019-02-09T12:38:55.043Z,11.84
2019-02-09T12:39:55.067Z,11.76
2019-02-09T12:40:55.096Z,11.70
2019-02-09T12:41:55.129Z,11.57
2019-02-09T12:42:55.150Z,11.49
2019-02-09T12:43:55.181Z,11.38
2019-02-09T12:44:55.204Z,11.42
2019-02-09T12:45:55.227Z,11.41
2019-02-09T12:46:55.257Z,11.48
2019-02-09T12:47:55.282Z,11.41
2019-02-09T12:48:55.305Z,11.38
2019-02-09T12:49:55.329Z,11.39
2019-02-09T12:50:55.355Z,11.27
2019-02-09T12:51:55.382Z,11.33
2019-02-09T12:52:55.411Z,11.30
2019-02-09T12:53:55.436Z,11.33
2019-02-09T12:54:55.462Z,11.35
2019-02-09T12:55:55.484Z,11.31
2019-02-09T12:56:55.510Z,11.35
2019-02-09T12:57:55.535Z,11.60
2019-02-09T12:58:55.573Z,11.56
2019-02-09T12:59:55.593Z,11.63
2019-02-09T13:00:55.612Z,11.56
2019-02-09T13:01:55.638Z,11.51
2019-02-09T13:02:55.667Z,11.63
2019-02-09T13:03:55.691Z,11.64
2019-02-09T13:04:55.715Z,11.53
2019-02-09T13:05:55.741Z,11.70
2019-02-09T13:06:55.773Z,13.01
2019-02-09T13:07:55.794Z,13.44
2019-02-09T13:08:55.819Z,13.51
2019-02-09T13:09:55.847Z,13.42
2019-02-09T13:10:55.871Z,12.76
2019-02-09T13:11:55.897Z,12.29